CheckWX is a tool to help pilots better visualize weather data.  It is not intended as a substitute for an official pre-flight weather briefing.

12:25:42 UTC

UEEE TAF
Yakutsk Airport
Yakutsk, Russian Federation
TAF UEEE 221100Z 2212/2318 16003G08MPS CAVOK TEMPO 2223/2315 2100 -SHSN SCT007 BKN020CB OVC070

Mar-22@
12:00 UTC

Mar-22 @ 12:00 UTC

Mar-23@
18:00 UTC

Mar-23 @ 18:00 UTC

TAF UEEE 221100Z 2212/2318 16003G08MPS CAVOK
Wind
  • 160° at 6 KTS
  • {Gusting to 16 KTS
Conditions
No significant weather
Cloud Levels
  • No significant clouds

Mar-22@
23:00 UTC

Mar-22 @ 23:00 UTC

Mar-23@
15:00 UTC

Mar-23 @ 15:00 UTC

TEMPO 2223/2315 2100 -SHSN SCT007 BKN020CB OVC070

Temporary

Temporary Changes expected for less than half the time period

Conditions
Light Snow
Cloud Levels
  • Scattered at 700' AGL
  • Broken at 2,000' AGL
  • Overcast at 7,000' AGL